Lowlands Kamsar — 3FCG2 — position and weather

sailwx.info

Track history (hours):
 
Tides and Currents Weather Stations Pressure Air Temp Water Temp Dewpoint Dewpoint Depression Visibility Wind Speed Wind Dir Waves Ship Positions

Lowlands Kamsar

Last reported at 2017-Dec-11 11:22 UTC. Time now 2018-Jan-23 12:01 UTC.
Position S 32°39' E 152°43'.
Warning: this ship's position is 43 days out of date.

Length 229 m; draft 14.6 m.

Type: Cargo ship. MMSI: 351916000.

Date/timePositionNaut miles runAvg speedWind from/ knotsBaromVisibWave heightAir tempDewpointWater temp
2017-Dec-11 11:22S 32°39' E 152°43'412.2
2017-Dec-11 11:00S 32°42' E 152°39'612.1
2017-Dec-11 10:30S 32°45' E 152°33'611.8
2017-Dec-11 10:00S 32°49' E 152°28'612.0
2017-Dec-11 09:30S 32°53' E 152°22'612.1
2017-Dec-11 09:00S 32°57' E 152°16'612.3
2017-Dec-11 08:30S 32°58' E 152°09'612.5
2017-Dec-11 08:00S 32°59' E 152°02'612.2
2017-Dec-11 07:30S 32°60' E 151°55'611.5
2017-Dec-11 07:00S 32°56' E 151°50'3 5.1
2017-Dec-11 06:30S 32°55' E 151°47'2 3.6
2017-Dec-11 06:00S 32°54' E 151°46'1 0.1
2017-Dec-10 19:24S 32°53' E 151°45'0 0.0
2017-Dec-10 18:57S 32°53' E 151°45'0 0.0
2017-Dec-10 12:03S 32°53' E 151°45'0 0.0
2017-Dec-10 11:54S 32°53' E 151°45'0 0.0
2017-Dec-10 11:18S 32°53' E 151°45'0 0.0
2017-Dec-10 10:06S 32°53' E 151°45'0 0.0
2017-Dec-10 07:06S 32°53' E 151°45'0 0.0
2017-Dec-10 06:58S 32°53' E 151°45'1 1.6
2017-Dec-10 06:31S 32°53' E 151°46'2 3.5
2017-Dec-10 06:01S 32°55' E 151°46'4 7.6
2017-Dec-10 05:31S 32°56' E 151°51'510.0
2017-Dec-10 05:01S 32°60' E 151°54'4 7.0
2017-Dec-10 04:31S 32°58' E 151°57'3 5.8
2017-Dec-10 04:00S 32°58' E 152°01'4 9.0
2017-Dec-10 03:31S 32°58' E 152°06'2 4.8
2017-Dec-10 03:00S 32°58' E 152°09'3 5.3
2017-Dec-10 02:31S 32°58' E 152°12'612.7
2017-Dec-10 02:00S 32°55' E 152°19'713.7
2017-Dec-10 01:30S 32°51' E 152°26'714.1
2017-Dec-10 01:00S 32°47' E 152°32'714.9
2017-Dec-10 00:30S 32°42' E 152°39'815.1
2017-Dec-10 00:00S 32°37' E 152°46'23513.8
2017-Dec-09 06:59S 28°54' E 154°13'2013.7
2017-Dec-09 05:32S 28°34' E 154°14'114.4
2017-Dec-09 05:28S 28°33' E 154°14'1815.4
2017-Dec-09 04:17S 28°15' E 154°13'415.7
2017-Dec-09 04:00S 28°11' E 154°12'  
Track history (hours):
 
Tides and Currents Weather Stations Pressure Air Temp Water Temp Dewpoint Dewpoint Depression Visibility Wind Speed Wind Dir Waves Ship Positions

Lowlands Kamsar

Last reported at 2017-Dec-11 11:22 UTC. Time now 2018-Jan-23 12:01 UTC.
Position S 32°39' E 152°43'.
Warning: this ship's position is 43 days out of date.

Length 229 m; draft 14.6 m.

Type: Cargo ship. MMSI: 351916000.

Date/timePositionNaut miles runAvg speedWind from/ knotsBaromVisibWave heightAir tempDewpointWater temp
2017-Dec-11 11:22S 32°39' E 152°43'412.2
2017-Dec-11 11:00S 32°42' E 152°39'612.1
2017-Dec-11 10:30S 32°45' E 152°33'611.8
2017-Dec-11 10:00S 32°49' E 152°28'612.0
2017-Dec-11 09:30S 32°53' E 152°22'612.1
2017-Dec-11 09:00S 32°57' E 152°16'612.3
2017-Dec-11 08:30S 32°58' E 152°09'612.5
2017-Dec-11 08:00S 32°59' E 152°02'612.2
2017-Dec-11 07:30S 32°60' E 151°55'611.5
2017-Dec-11 07:00S 32°56' E 151°50'3 5.1
2017-Dec-11 06:30S 32°55' E 151°47'2 3.6
2017-Dec-11 06:00S 32°54' E 151°46'1 0.1
2017-Dec-10 19:24S 32°53' E 151°45'0 0.0
2017-Dec-10 18:57S 32°53' E 151°45'0 0.0
2017-Dec-10 12:03S 32°53' E 151°45'0 0.0
2017-Dec-10 11:54S 32°53' E 151°45'0 0.0
2017-Dec-10 11:18S 32°53' E 151°45'0 0.0
2017-Dec-10 10:06S 32°53' E 151°45'0 0.0
2017-Dec-10 07:06S 32°53' E 151°45'0 0.0
2017-Dec-10 06:58S 32°53' E 151°45'1 1.6
2017-Dec-10 06:31S 32°53' E 151°46'2 3.5
2017-Dec-10 06:01S 32°55' E 151°46'4 7.6
2017-Dec-10 05:31S 32°56' E 151°51'510.0
2017-Dec-10 05:01S 32°60' E 151°54'4 7.0
2017-Dec-10 04:31S 32°58' E 151°57'3 5.8
2017-Dec-10 04:00S 32°58' E 152°01'4 9.0
2017-Dec-10 03:31S 32°58' E 152°06'2 4.8
2017-Dec-10 03:00S 32°58' E 152°09'3 5.3
2017-Dec-10 02:31S 32°58' E 152°12'612.7
2017-Dec-10 02:00S 32°55' E 152°19'713.7
2017-Dec-10 01:30S 32°51' E 152°26'714.1
2017-Dec-10 01:00S 32°47' E 152°32'714.9
2017-Dec-10 00:30S 32°42' E 152°39'815.1
2017-Dec-10 00:00S 32°37' E 152°46'23513.8
2017-Dec-09 06:59S 28°54' E 154°13'2013.7
2017-Dec-09 05:32S 28°34' E 154°14'114.4
2017-Dec-09 05:28S 28°33' E 154°14'1815.4
2017-Dec-09 04:17S 28°15' E 154°13'415.7
2017-Dec-09 04:00S 28°11' E 154°12'  

Dump ship's entire track history